sensor_id;sensor_type;location;lat;lon;timestamp;P1;durP1;ratioP1;P2;durP2;ratioP2
43682;SDS011;29285;52.128;21.060;2023-05-07T00:03:49;3.10;;;2.20;;
43682;SDS011;29285;52.128;21.060;2023-05-07T00:08:51;2.80;;;2.00;;
43682;SDS011;29285;52.128;21.060;2023-05-07T00:13:51;4.50;;;1.80;;
43682;SDS011;29285;52.128;21.060;2023-05-07T00:18:52;2.70;;;2.20;;
43682;SDS011;29285;52.128;21.060;2023-05-07T00:23:54;2.20;;;1.90;;
43682;SDS011;29285;52.128;21.060;2023-05-07T00:28:55;2.40;;;2.00;;
43682;SDS011;29285;52.128;21.060;2023-05-07T00:33:56;5.30;;;2.60;;
43682;SDS011;29285;52.128;21.060;2023-05-07T00:38:59;3.00;;;2.10;;
43682;SDS011;29285;52.128;21.060;2023-05-07T00:44:01;2.40;;;2.00;;
43682;SDS011;29285;52.128;21.060;2023-05-07T00:49:03;3.30;;;2.20;;
43682;SDS011;29285;52.128;21.060;2023-05-07T00:54:04;4.70;;;2.30;;
43682;SDS011;29285;52.128;21.060;2023-05-07T00:59:05;5.50;;;2.50;;
43682;SDS011;29285;52.128;21.060;2023-05-07T01:04:06;3.40;;;2.50;;
43682;SDS011;29285;52.128;21.060;2023-05-07T01:09:07;5.40;;;2.30;;
43682;SDS011;29285;52.128;21.060;2023-05-07T01:14:09;5.90;;;2.70;;
43682;SDS011;29285;52.128;21.060;2023-05-07T01:19:11;2.40;;;1.70;;
43682;SDS011;29285;52.128;21.060;2023-05-07T01:24:15;3.00;;;2.20;;
43682;SDS011;29285;52.128;21.060;2023-05-07T01:29:16;2.40;;;2.00;;
43682;SDS011;29285;52.128;21.060;2023-05-07T01:34:18;2.80;;;2.30;;
43682;SDS011;29285;52.128;21.060;2023-05-07T01:39:22;4.60;;;1.90;;
43682;SDS011;29285;52.128;21.060;2023-05-07T01:44:25;2.50;;;1.70;;
43682;SDS011;29285;52.128;21.060;2023-05-07T01:49:27;2.60;;;1.50;;
43682;SDS011;29285;52.128;21.060;2023-05-07T01:54:28;2.20;;;2.00;;
43682;SDS011;29285;52.128;21.060;2023-05-07T01:59:30;3.50;;;1.90;;
43682;SDS011;29285;52.128;21.060;2023-05-07T02:20:57;2.30;;;1.80;;
43682;SDS011;29285;52.128;21.060;2023-05-07T02:25:58;3.50;;;1.90;;
43682;SDS011;29285;52.128;21.060;2023-05-07T02:30:59;2.90;;;2.00;;
43682;SDS011;29285;52.128;21.060;2023-05-07T02:36:10;3.50;;;2.00;;
43682;SDS011;29285;52.128;21.060;2023-05-07T02:41:12;3.20;;;1.80;;
43682;SDS011;29285;52.128;21.060;2023-05-07T02:46:12;4.30;;;1.80;;
43682;SDS011;29285;52.128;21.060;2023-05-07T02:51:13;3.40;;;1.50;;
43682;SDS011;29285;52.128;21.060;2023-05-07T02:56:15;2.30;;;2.10;;
43682;SDS011;29285;52.128;21.060;2023-05-07T03:01:15;1.60;;;1.50;;
43682;SDS011;29285;52.128;21.060;2023-05-07T03:06:16;2.60;;;1.60;;
43682;SDS011;29285;52.128;21.060;2023-05-07T03:11:17;3.10;;;1.80;;
43682;SDS011;29285;52.128;21.060;2023-05-07T03:16:18;4.90;;;2.60;;
43682;SDS011;29285;52.128;21.060;2023-05-07T03:21:19;2.40;;;1.70;;
43682;SDS011;29285;52.128;21.060;2023-05-07T03:26:21;2.00;;;1.70;;
43682;SDS011;29285;52.128;21.060;2023-05-07T03:31:21;2.30;;;1.70;;
43682;SDS011;29285;52.128;21.060;2023-05-07T03:36:22;2.50;;;1.90;;
43682;SDS011;29285;52.128;21.060;2023-05-07T03:41:24;2.30;;;1.50;;
43682;SDS011;29285;52.128;21.060;2023-05-07T03:46:26;1.40;;;1.20;;
43682;SDS011;29285;52.128;21.060;2023-05-07T03:51:28;1.50;;;1.30;;
43682;SDS011;29285;52.128;21.060;2023-05-07T03:56:29;1.80;;;1.50;;
43682;SDS011;29285;52.128;21.060;2023-05-07T04:01:31;2.90;;;1.10;;
43682;SDS011;29285;52.128;21.060;2023-05-07T04:06:33;1.30;;;1.10;;
43682;SDS011;29285;52.128;21.060;2023-05-07T04:11:34;2.00;;;1.30;;
43682;SDS011;29285;52.128;21.060;2023-05-07T04:16:36;2.00;;;1.30;;
43682;SDS011;29285;52.128;21.060;2023-05-07T04:21:37;3.10;;;1.40;;
43682;SDS011;29285;52.128;21.060;2023-05-07T04:26:38;1.30;;;1.10;;
43682;SDS011;29285;52.128;21.060;2023-05-07T04:31:39;1.70;;;1.20;;
43682;SDS011;29285;52.128;21.060;2023-05-07T04:36:40;2.70;;;1.40;;
43682;SDS011;29285;52.128;21.060;2023-05-07T04:41:42;2.70;;;1.50;;
43682;SDS011;29285;52.128;21.060;2023-05-07T04:46:43;1.60;;;1.20;;
43682;SDS011;29285;52.128;21.060;2023-05-07T04:51:44;1.60;;;1.30;;
43682;SDS011;29285;52.128;21.060;2023-05-07T04:56:45;2.50;;;1.70;;
43682;SDS011;29285;52.128;21.060;2023-05-07T05:01:46;1.80;;;1.30;;
43682;SDS011;29285;52.128;21.060;2023-05-07T05:06:47;2.60;;;1.40;;
43682;SDS011;29285;52.128;21.060;2023-05-07T05:11:48;1.80;;;1.30;;
43682;SDS011;29285;52.128;21.060;2023-05-07T05:16:49;1.70;;;1.50;;
43682;SDS011;29285;52.128;21.060;2023-05-07T05:21:50;1.50;;;1.20;;
43682;SDS011;29285;52.128;21.060;2023-05-07T05:26:53;2.20;;;1.30;;
43682;SDS011;29285;52.128;21.060;2023-05-07T05:31:54;1.40;;;1.30;;
43682;SDS011;29285;52.128;21.060;2023-05-07T05:36:55;1.30;;;1.20;;
43682;SDS011;29285;52.128;21.060;2023-05-07T05:41:57;3.30;;;1.40;;
43682;SDS011;29285;52.128;21.060;2023-05-07T05:46:58;1.50;;;1.30;;
43682;SDS011;29285;52.128;21.060;2023-05-07T05:51:59;1.50;;;1.40;;
43682;SDS011;29285;52.128;21.060;2023-05-07T05:57:01;2.20;;;1.00;;
43682;SDS011;29285;52.128;21.060;2023-05-07T06:02:04;3.50;;;1.70;;
43682;SDS011;29285;52.128;21.060;2023-05-07T06:07:05;2.80;;;1.60;;
43682;SDS011;29285;52.128;21.060;2023-05-07T06:12:06;1.40;;;1.20;;
43682;SDS011;29285;52.128;21.060;2023-05-07T06:17:07;1.10;;;1.00;;
43682;SDS011;29285;52.128;21.060;2023-05-07T06:22:08;1.30;;;1.00;;
43682;SDS011;29285;52.128;21.060;2023-05-07T06:27:10;1.20;;;0.80;;
43682;SDS011;29285;52.128;21.060;2023-05-07T06:32:12;1.90;;;1.00;;
43682;SDS011;29285;52.128;21.060;2023-05-07T06:37:13;1.90;;;1.30;;
43682;SDS011;29285;52.128;21.060;2023-05-07T06:42:15;3.00;;;1.10;;
43682;SDS011;29285;52.128;21.060;2023-05-07T06:47:15;1.40;;;0.80;;
43682;SDS011;29285;52.128;21.060;2023-05-07T06:52:17;2.10;;;1.00;;
43682;SDS011;29285;52.128;21.060;2023-05-07T06:57:18;2.50;;;1.10;;
43682;SDS011;29285;52.128;21.060;2023-05-07T07:02:18;1.60;;;1.30;;
43682;SDS011;29285;52.128;21.060;2023-05-07T07:07:19;1.70;;;1.30;;
43682;SDS011;29285;52.128;21.060;2023-05-07T07:12:20;2.50;;;1.10;;
43682;SDS011;29285;52.128;21.060;2023-05-07T07:17:23;1.30;;;1.00;;
43682;SDS011;29285;52.128;21.060;2023-05-07T07:22:24;1.60;;;0.90;;
43682;SDS011;29285;52.128;21.060;2023-05-07T07:27:25;2.70;;;1.10;;
43682;SDS011;29285;52.128;21.060;2023-05-07T07:32:26;1.70;;;1.30;;
43682;SDS011;29285;52.128;21.060;2023-05-07T07:37:27;3.80;;;1.50;;
43682;SDS011;29285;52.128;21.060;2023-05-07T07:42:27;1.30;;;1.10;;
43682;SDS011;29285;52.128;21.060;2023-05-07T07:47:29;1.90;;;1.10;;
43682;SDS011;29285;52.128;21.060;2023-05-07T07:52:30;4.00;;;1.60;;
43682;SDS011;29285;52.128;21.060;2023-05-07T07:57:31;1.90;;;1.00;;
43682;SDS011;29285;52.128;21.060;2023-05-07T08:02:32;2.00;;;1.50;;
43682;SDS011;29285;52.128;21.060;2023-05-07T08:07:33;3.40;;;1.30;;
43682;SDS011;29285;52.128;21.060;2023-05-07T08:12:35;2.10;;;1.10;;
43682;SDS011;29285;52.128;21.060;2023-05-07T08:17:36;1.70;;;1.40;;
43682;SDS011;29285;52.128;21.060;2023-05-07T08:22:37;1.60;;;1.00;;
43682;SDS011;29285;52.128;21.060;2023-05-07T08:27:38;2.40;;;2.10;;
43682;SDS011;29285;52.128;21.060;2023-05-07T08:32:38;1.40;;;1.30;;
43682;SDS011;29285;52.128;21.060;2023-05-07T08:37:40;2.40;;;1.00;;
43682;SDS011;29285;52.128;21.060;2023-05-07T08:42:41;3.60;;;1.30;;
43682;SDS011;29285;52.128;21.060;2023-05-07T08:47:43;2.60;;;1.10;;
43682;SDS011;29285;52.128;21.060;2023-05-07T08:52:47;1.90;;;1.40;;
43682;SDS011;29285;52.128;21.060;2023-05-07T08:57:48;2.80;;;1.50;;
43682;SDS011;29285;52.128;21.060;2023-05-07T09:02:49;2.10;;;1.20;;
43682;SDS011;29285;52.128;21.060;2023-05-07T09:07:50;2.50;;;1.20;;
43682;SDS011;29285;52.128;21.060;2023-05-07T09:12:51;2.60;;;1.10;;
43682;SDS011;29285;52.128;21.060;2023-05-07T09:17:52;2.40;;;1.00;;
43682;SDS011;29285;52.128;21.060;2023-05-07T09:22:55;1.90;;;1.60;;
43682;SDS011;29285;52.128;21.060;2023-05-07T09:27:56;4.30;;;1.50;;
43682;SDS011;29285;52.128;21.060;2023-05-07T09:32:58;1.00;;;0.90;;
43682;SDS011;29285;52.128;21.060;2023-05-07T09:38:00;1.40;;;1.00;;
43682;SDS011;29285;52.128;21.060;2023-05-07T09:43:11;1.30;;;1.10;;
43682;SDS011;29285;52.128;21.060;2023-05-07T09:48:13;3.30;;;1.30;;
43682;SDS011;29285;52.128;21.060;2023-05-07T09:53:17;1.60;;;1.20;;
43682;SDS011;29285;52.128;21.060;2023-05-07T09:58:19;2.20;;;1.20;;
43682;SDS011;29285;52.128;21.060;2023-05-07T10:03:21;1.50;;;1.10;;
43682;SDS011;29285;52.128;21.060;2023-05-07T10:08:25;3.70;;;1.40;;
43682;SDS011;29285;52.128;21.060;2023-05-07T10:13:26;2.80;;;1.20;;
43682;SDS011;29285;52.128;21.060;2023-05-07T10:18:27;2.20;;;1.00;;
43682;SDS011;29285;52.128;21.060;2023-05-07T10:23:30;4.70;;;1.30;;
43682;SDS011;29285;52.128;21.060;2023-05-07T10:28:34;3.30;;;1.10;;
43682;SDS011;29285;52.128;21.060;2023-05-07T10:33:38;2.90;;;1.00;;
43682;SDS011;29285;52.128;21.060;2023-05-07T10:38:40;2.30;;;1.30;;
43682;SDS011;29285;52.128;21.060;2023-05-07T10:43:43;1.00;;;0.90;;
43682;SDS011;29285;52.128;21.060;2023-05-07T11:04:31;1.20;;;1.10;;
43682;SDS011;29285;52.128;21.060;2023-05-07T11:14:56;4.50;;;1.40;;
43682;SDS011;29285;52.128;21.060;2023-05-07T11:19:58;1.70;;;1.00;;
43682;SDS011;29285;52.128;21.060;2023-05-07T11:24:59;2.00;;;1.20;;
43682;SDS011;29285;52.128;21.060;2023-05-07T11:30:00;1.80;;;1.50;;
43682;SDS011;29285;52.128;21.060;2023-05-07T11:35:02;2.30;;;1.30;;
43682;SDS011;29285;52.128;21.060;2023-05-07T11:40:03;2.60;;;1.00;;
43682;SDS011;29285;52.128;21.060;2023-05-07T11:45:07;2.40;;;1.10;;
43682;SDS011;29285;52.128;21.060;2023-05-07T11:50:09;2.90;;;1.20;;
43682;SDS011;29285;52.128;21.060;2023-05-07T11:55:11;1.60;;;1.10;;
43682;SDS011;29285;52.128;21.060;2023-05-07T12:00:12;5.70;;;1.40;;
43682;SDS011;29285;52.128;21.060;2023-05-07T12:05:16;1.20;;;1.00;;
43682;SDS011;29285;52.128;21.060;2023-05-07T12:10:17;2.40;;;1.70;;
43682;SDS011;29285;52.128;21.060;2023-05-07T12:15:22;1.90;;;1.20;;
43682;SDS011;29285;52.128;21.060;2023-05-07T12:20:23;2.90;;;1.30;;
43682;SDS011;29285;52.128;21.060;2023-05-07T12:25:24;4.80;;;1.50;;
43682;SDS011;29285;52.128;21.060;2023-05-07T12:30:26;1.60;;;1.20;;
43682;SDS011;29285;52.128;21.060;2023-05-07T12:35:28;2.90;;;1.00;;
43682;SDS011;29285;52.128;21.060;2023-05-07T12:40:39;1.70;;;1.30;;
43682;SDS011;29285;52.128;21.060;2023-05-07T12:45:41;1.90;;;1.10;;
43682;SDS011;29285;52.128;21.060;2023-05-07T12:50:43;2.40;;;1.60;;
43682;SDS011;29285;52.128;21.060;2023-05-07T12:55:45;4.70;;;1.30;;
43682;SDS011;29285;52.128;21.060;2023-05-07T13:00:48;2.00;;;1.20;;
43682;SDS011;29285;52.128;21.060;2023-05-07T13:05:50;2.70;;;1.20;;
43682;SDS011;29285;52.128;21.060;2023-05-07T13:10:52;4.70;;;1.40;;
43682;SDS011;29285;52.128;21.060;2023-05-07T13:15:53;2.30;;;1.40;;
43682;SDS011;29285;52.128;21.060;2023-05-07T13:20:55;2.60;;;1.40;;
43682;SDS011;29285;52.128;21.060;2023-05-07T13:25:56;2.10;;;1.10;;
43682;SDS011;29285;52.128;21.060;2023-05-07T13:30:57;4.50;;;1.50;;
43682;SDS011;29285;52.128;21.060;2023-05-07T13:35:58;2.00;;;1.10;;
43682;SDS011;29285;52.128;21.060;2023-05-07T13:41:01;2.10;;;1.10;;
43682;SDS011;29285;52.128;21.060;2023-05-07T13:46:02;1.70;;;1.00;;
43682;SDS011;29285;52.128;21.060;2023-05-07T13:51:03;3.30;;;0.90;;
43682;SDS011;29285;52.128;21.060;2023-05-07T13:56:05;1.50;;;1.00;;
43682;SDS011;29285;52.128;21.060;2023-05-07T14:01:06;5.30;;;1.30;;
43682;SDS011;29285;52.128;21.060;2023-05-07T14:06:07;2.70;;;1.50;;
43682;SDS011;29285;52.128;21.060;2023-05-07T14:11:08;1.90;;;1.00;;
43682;SDS011;29285;52.128;21.060;2023-05-07T14:16:09;0.90;;;0.70;;
43682;SDS011;29285;52.128;21.060;2023-05-07T14:21:10;1.30;;;1.00;;
43682;SDS011;29285;52.128;21.060;2023-05-07T14:26:11;2.80;;;0.80;;
43682;SDS011;29285;52.128;21.060;2023-05-07T14:31:12;1.30;;;1.00;;
43682;SDS011;29285;52.128;21.060;2023-05-07T14:36:13;1.30;;;0.80;;
43682;SDS011;29285;52.128;21.060;2023-05-07T14:41:15;1.50;;;1.20;;
43682;SDS011;29285;52.128;21.060;2023-05-07T14:46:19;1.40;;;1.20;;
43682;SDS011;29285;52.128;21.060;2023-05-07T14:51:20;1.00;;;0.90;;
43682;SDS011;29285;52.128;21.060;2023-05-07T14:56:21;2.50;;;1.20;;
43682;SDS011;29285;52.128;21.060;2023-05-07T15:01:22;1.20;;;1.00;;
43682;SDS011;29285;52.128;21.060;2023-05-07T15:06:23;3.00;;;1.00;;
43682;SDS011;29285;52.128;21.060;2023-05-07T15:11:25;2.80;;;0.90;;
43682;SDS011;29285;52.128;21.060;2023-05-07T15:16:26;5.30;;;1.00;;
43682;SDS011;29285;52.128;21.060;2023-05-07T15:21:27;4.50;;;1.30;;
43682;SDS011;29285;52.128;21.060;2023-05-07T15:26:28;5.60;;;1.10;;
43682;SDS011;29285;52.128;21.060;2023-05-07T15:31:29;3.00;;;1.50;;
43682;SDS011;29285;52.128;21.060;2023-05-07T15:36:30;4.20;;;1.40;;
43682;SDS011;29285;52.128;21.060;2023-05-07T15:41:31;3.00;;;1.10;;
43682;SDS011;29285;52.128;21.060;2023-05-07T15:46:32;5.70;;;1.90;;
43682;SDS011;29285;52.128;21.060;2023-05-07T15:51:34;1.80;;;1.50;;
43682;SDS011;29285;52.128;21.060;2023-05-07T15:56:35;2.60;;;1.10;;
43682;SDS011;29285;52.128;21.060;2023-05-07T16:01:36;4.20;;;1.70;;
43682;SDS011;29285;52.128;21.060;2023-05-07T16:06:38;2.80;;;1.30;;
43682;SDS011;29285;52.128;21.060;2023-05-07T16:11:39;1.70;;;1.20;;
43682;SDS011;29285;52.128;21.060;2023-05-07T16:16:40;2.00;;;1.60;;
43682;SDS011;29285;52.128;21.060;2023-05-07T16:21:41;4.20;;;1.70;;
43682;SDS011;29285;52.128;21.060;2023-05-07T16:26:42;1.90;;;1.50;;
43682;SDS011;29285;52.128;21.060;2023-05-07T16:31:43;4.10;;;1.70;;
43682;SDS011;29285;52.128;21.060;2023-05-07T16:36:45;2.60;;;1.60;;
43682;SDS011;29285;52.128;21.060;2023-05-07T16:41:46;2.10;;;1.70;;
43682;SDS011;29285;52.128;21.060;2023-05-07T16:46:48;3.90;;;1.50;;
43682;SDS011;29285;52.128;21.060;2023-05-07T16:51:49;3.80;;;1.50;;
43682;SDS011;29285;52.128;21.060;2023-05-07T16:56:50;2.20;;;1.60;;
43682;SDS011;29285;52.128;21.060;2023-05-07T17:01:51;2.20;;;1.70;;
43682;SDS011;29285;52.128;21.060;2023-05-07T17:06:53;2.10;;;1.70;;
43682;SDS011;29285;52.128;21.060;2023-05-07T17:11:54;3.80;;;1.80;;
43682;SDS011;29285;52.128;21.060;2023-05-07T17:16:55;3.40;;;1.90;;
43682;SDS011;29285;52.128;21.060;2023-05-07T17:21:56;2.30;;;1.90;;
43682;SDS011;29285;52.128;21.060;2023-05-07T17:26:57;3.50;;;2.00;;
43682;SDS011;29285;52.128;21.060;2023-05-07T17:31:59;3.30;;;2.00;;
43682;SDS011;29285;52.128;21.060;2023-05-07T17:37:00;2.20;;;2.00;;
43682;SDS011;29285;52.128;21.060;2023-05-07T17:42:01;2.50;;;2.30;;
43682;SDS011;29285;52.128;21.060;2023-05-07T17:47:02;3.10;;;2.30;;
43682;SDS011;29285;52.128;21.060;2023-05-07T17:52:03;3.00;;;2.30;;
43682;SDS011;29285;52.128;21.060;2023-05-07T17:57:04;2.60;;;2.10;;
43682;SDS011;29285;52.128;21.060;2023-05-07T18:02:06;7.80;;;5.80;;
43682;SDS011;29285;52.128;21.060;2023-05-07T18:07:07;4.50;;;2.50;;
43682;SDS011;29285;52.128;21.060;2023-05-07T18:12:08;4.70;;;2.40;;
43682;SDS011;29285;52.128;21.060;2023-05-07T18:17:09;5.60;;;2.00;;
43682;SDS011;29285;52.128;21.060;2023-05-07T18:22:10;3.30;;;1.90;;
43682;SDS011;29285;52.128;21.060;2023-05-07T18:27:11;2.20;;;2.00;;
43682;SDS011;29285;52.128;21.060;2023-05-07T18:32:13;4.60;;;1.80;;
43682;SDS011;29285;52.128;21.060;2023-05-07T18:37:14;4.70;;;1.90;;
43682;SDS011;29285;52.128;21.060;2023-05-07T18:42:15;3.80;;;1.50;;
43682;SDS011;29285;52.128;21.060;2023-05-07T18:47:16;3.20;;;1.30;;
43682;SDS011;29285;52.128;21.060;2023-05-07T18:52:18;2.60;;;1.70;;
43682;SDS011;29285;52.128;21.060;2023-05-07T18:57:21;2.60;;;1.80;;
43682;SDS011;29285;52.128;21.060;2023-05-07T19:02:22;3.10;;;1.70;;
43682;SDS011;29285;52.128;21.060;2023-05-07T19:07:24;4.00;;;2.00;;
43682;SDS011;29285;52.128;21.060;2023-05-07T19:12:25;1.80;;;1.60;;
43682;SDS011;29285;52.128;21.060;2023-05-07T19:17:26;3.70;;;2.20;;
43682;SDS011;29285;52.128;21.060;2023-05-07T19:22:28;2.50;;;1.50;;
43682;SDS011;29285;52.128;21.060;2023-05-07T19:27:29;2.80;;;1.90;;
43682;SDS011;29285;52.128;21.060;2023-05-07T19:32:30;2.80;;;1.70;;
43682;SDS011;29285;52.128;21.060;2023-05-07T19:37:31;1.90;;;1.60;;
43682;SDS011;29285;52.128;21.060;2023-05-07T19:42:32;2.30;;;1.80;;
43682;SDS011;29285;52.128;21.060;2023-05-07T19:47:33;4.00;;;1.90;;
43682;SDS011;29285;52.128;21.060;2023-05-07T19:52:35;2.20;;;1.70;;
43682;SDS011;29285;52.128;21.060;2023-05-07T19:57:36;2.10;;;1.70;;
43682;SDS011;29285;52.128;21.060;2023-05-07T20:02:37;3.60;;;2.40;;
43682;SDS011;29285;52.128;21.060;2023-05-07T20:07:39;6.00;;;2.50;;
43682;SDS011;29285;52.128;21.060;2023-05-07T20:12:40;3.30;;;2.10;;
43682;SDS011;29285;52.128;21.060;2023-05-07T20:17:41;3.40;;;2.10;;
43682;SDS011;29285;52.128;21.060;2023-05-07T20:22:42;5.90;;;2.50;;
43682;SDS011;29285;52.128;21.060;2023-05-07T20:27:43;2.60;;;1.70;;
43682;SDS011;29285;52.128;21.060;2023-05-07T20:32:45;2.20;;;1.70;;
43682;SDS011;29285;52.128;21.060;2023-05-07T20:37:46;7.50;;;2.40;;
43682;SDS011;29285;52.128;21.060;2023-05-07T20:42:47;2.10;;;1.90;;
43682;SDS011;29285;52.128;21.060;2023-05-07T20:47:48;3.40;;;2.00;;
43682;SDS011;29285;52.128;21.060;2023-05-07T20:52:49;5.50;;;2.30;;
43682;SDS011;29285;52.128;21.060;2023-05-07T20:57:50;3.80;;;2.50;;
43682;SDS011;29285;52.128;21.060;2023-05-07T21:02:51;5.30;;;2.70;;
43682;SDS011;29285;52.128;21.060;2023-05-07T21:07:52;3.90;;;2.30;;
43682;SDS011;29285;52.128;21.060;2023-05-07T21:12:53;3.60;;;3.00;;
43682;SDS011;29285;52.128;21.060;2023-05-07T21:17:54;5.70;;;2.60;;
43682;SDS011;29285;52.128;21.060;2023-05-07T21:22:55;3.10;;;2.50;;
43682;SDS011;29285;52.128;21.060;2023-05-07T21:27:56;4.70;;;2.30;;
43682;SDS011;29285;52.128;21.060;2023-05-07T21:32:58;3.20;;;2.20;;
43682;SDS011;29285;52.128;21.060;2023-05-07T21:37:59;4.10;;;2.50;;
43682;SDS011;29285;52.128;21.060;2023-05-07T21:43:02;3.90;;;2.60;;
43682;SDS011;29285;52.128;21.060;2023-05-07T21:48:03;5.50;;;3.00;;
43682;SDS011;29285;52.128;21.060;2023-05-07T21:53:04;5.20;;;3.00;;
43682;SDS011;29285;52.128;21.060;2023-05-07T21:58:05;6.00;;;3.20;;
43682;SDS011;29285;52.128;21.060;2023-05-07T22:03:09;4.60;;;3.30;;
43682;SDS011;29285;52.128;21.060;2023-05-07T22:08:10;5.30;;;3.30;;
43682;SDS011;29285;52.128;21.060;2023-05-07T22:13:11;8.90;;;3.60;;
43682;SDS011;29285;52.128;21.060;2023-05-07T22:18:12;5.30;;;3.90;;
43682;SDS011;29285;52.128;21.060;2023-05-07T22:23:13;6.40;;;4.00;;
43682;SDS011;29285;52.128;21.060;2023-05-07T22:28:15;5.70;;;4.00;;
43682;SDS011;29285;52.128;21.060;2023-05-07T22:33:16;7.00;;;4.40;;
43682;SDS011;29285;52.128;21.060;2023-05-07T22:38:17;6.60;;;4.40;;
43682;SDS011;29285;52.128;21.060;2023-05-07T22:43:18;10.10;;;4.40;;
43682;SDS011;29285;52.128;21.060;2023-05-07T22:48:19;9.20;;;5.10;;
43682;SDS011;29285;52.128;21.060;2023-05-07T22:53:20;8.00;;;4.60;;
43682;SDS011;29285;52.128;21.060;2023-05-07T22:58:22;7.20;;;5.00;;
43682;SDS011;29285;52.128;21.060;2023-05-07T23:03:23;9.00;;;5.30;;
43682;SDS011;29285;52.128;21.060;2023-05-07T23:08:25;6.90;;;4.90;;
43682;SDS011;29285;52.128;21.060;2023-05-07T23:13:27;9.60;;;4.80;;
43682;SDS011;29285;52.128;21.060;2023-05-07T23:18:28;9.40;;;6.20;;
43682;SDS011;29285;52.128;21.060;2023-05-07T23:23:29;8.50;;;5.40;;
43682;SDS011;29285;52.128;21.060;2023-05-07T23:28:34;8.40;;;6.10;;
43682;SDS011;29285;52.128;21.060;2023-05-07T23:33:35;10.20;;;5.40;;
43682;SDS011;29285;52.128;21.060;2023-05-07T23:38:37;9.60;;;5.20;;
43682;SDS011;29285;52.128;21.060;2023-05-07T23:43:38;10.00;;;6.80;;
43682;SDS011;29285;52.128;21.060;2023-05-07T23:48:39;9.30;;;5.30;;
43682;SDS011;29285;52.128;21.060;2023-05-07T23:53:41;10.50;;;5.90;;
43682;SDS011;29285;52.128;21.060;2023-05-07T23:58:42;8.40;;;5.40;;
